createdAt,value
2023-02-11T00:02:53.267Z,-3.92
2023-02-11T00:07:54.879Z,-4.06
2023-02-11T00:12:56.666Z,-4.07
2023-02-11T00:17:58.228Z,-4.05
2023-02-11T00:22:59.821Z,-4.03
2023-02-11T00:28:01.406Z,-4.00
2023-02-11T00:33:03.628Z,-4.05
2023-02-11T00:38:07.219Z,-4.13
2023-02-11T00:43:08.851Z,-4.01
2023-02-11T00:48:10.443Z,-3.83
2023-02-11T00:53:12.236Z,-3.66
2023-02-11T00:58:13.953Z,-3.59
2023-02-11T01:03:17.186Z,-3.55
2023-02-11T01:08:19.029Z,-3.57
2023-02-11T01:13:20.598Z,-3.49
2023-02-11T01:18:22.182Z,-3.42
2023-02-11T01:23:24.123Z,-3.28
2023-02-11T01:28:28.529Z,-3.08
2023-02-11T01:33:30.580Z,-2.90
2023-02-11T01:38:33.791Z,-2.68
2023-02-11T01:43:41.682Z,-2.50
2023-02-11T01:48:47.504Z,-2.28
2023-02-11T01:54:09.727Z,-2.13
2023-02-11T01:59:17.973Z,-2.02
2023-02-11T02:04:20.128Z,-1.89
2023-02-11T02:09:29.411Z,-1.81
2023-02-11T02:14:30.998Z,-1.76
2023-02-11T02:20:02.415Z,-1.86
2023-02-11T02:25:28.174Z,-1.88
2023-02-11T02:31:07.455Z,-1.85
2023-02-11T02:36:21.305Z,-1.94
2023-02-11T02:41:32.536Z,-2.01
2023-02-11T02:46:35.614Z,-1.92
2023-02-11T02:52:00.659Z,-1.87
2023-02-11T02:57:13.959Z,-1.98
2023-02-11T03:02:26.828Z,-2.01
2023-02-11T03:07:41.774Z,-2.08
2023-02-11T03:12:48.294Z,-2.21
2023-02-11T03:17:54.297Z,-2.33
2023-02-11T03:23:02.121Z,-2.16
2023-02-11T03:28:23.384Z,-2.09
2023-02-11T03:33:31.324Z,-1.96
2023-02-11T03:38:37.776Z,-1.83
2023-02-11T03:43:44.464Z,-1.76
2023-02-11T03:48:51.916Z,-1.74
2023-02-11T03:53:57.776Z,-1.74
2023-02-11T03:58:59.349Z,-1.68
2023-02-11T04:04:00.927Z,-1.63
2023-02-11T04:09:02.672Z,-1.56
2023-02-11T04:14:04.602Z,-1.62
2023-02-11T04:19:06.198Z,-1.69
2023-02-11T04:24:07.869Z,-1.72
2023-02-11T04:29:10.583Z,-1.61
2023-02-11T04:34:12.340Z,-1.46
2023-02-11T04:39:13.929Z,-1.31
2023-02-11T04:44:15.590Z,-1.26
2023-02-11T04:49:17.540Z,-1.14
2023-02-11T04:54:20.014Z,-1.14
2023-02-11T04:59:21.658Z,-1.19
2023-02-11T05:04:23.305Z,-1.18
2023-02-11T05:09:24.909Z,-1.15
2023-02-11T05:14:26.521Z,-1.12
2023-02-11T05:19:28.110Z,-1.11
2023-02-11T05:24:31.506Z,-1.03
2023-02-11T05:29:34.766Z,-0.94
2023-02-11T05:34:36.866Z,-0.76
2023-02-11T05:39:38.446Z,-0.60
2023-02-11T05:44:40.156Z,-0.54
2023-02-11T05:49:41.760Z,-0.50
2023-02-11T05:54:43.334Z,-0.41
2023-02-11T05:59:44.938Z,-0.38
2023-02-11T06:04:46.617Z,-0.43
2023-02-11T06:09:48.192Z,-0.62
2023-02-11T06:14:49.828Z,-0.70
2023-02-11T06:19:51.623Z,-0.81
2023-02-11T06:25:01.344Z,-0.86
2023-02-11T06:30:04.989Z,-0.87
2023-02-11T06:35:11.930Z,-1.03
2023-02-11T06:40:14.013Z,-1.20
2023-02-11T06:45:15.701Z,-1.30
2023-02-11T06:50:17.432Z,-1.25
2023-02-11T06:55:19.033Z,-1.23
2023-02-11T07:00:20.682Z,-1.20
2023-02-11T07:05:22.248Z,-1.01
2023-02-11T07:10:23.989Z,-0.81
2023-02-11T07:15:25.808Z,-0.59
2023-02-11T07:20:27.409Z,-0.43
2023-02-11T07:25:29.007Z,-0.32
2023-02-11T07:30:30.711Z,-0.18
2023-02-11T07:35:32.337Z,0.01
2023-02-11T07:40:34.006Z,0.23
2023-02-11T07:45:38.931Z,0.41
2023-02-11T07:50:40.490Z,0.60
2023-02-11T07:55:43.686Z,0.65
2023-02-11T08:00:46.095Z,0.67
2023-02-11T08:05:47.733Z,0.63
2023-02-11T08:10:49.500Z,0.57
2023-02-11T08:15:51.651Z,0.68
2023-02-11T08:20:53.520Z,0.79
2023-02-11T08:25:55.083Z,0.74
2023-02-11T08:30:56.706Z,0.55
2023-02-11T08:35:58.370Z,0.36
2023-02-11T08:41:01.034Z,0.33
2023-02-11T08:46:03.426Z,0.32
2023-02-11T08:51:09.611Z,0.36
2023-02-11T08:56:13.657Z,0.39
2023-02-11T09:01:26.909Z,0.57
2023-02-11T09:06:29.492Z,0.70
2023-02-11T09:11:33.746Z,0.74
2023-02-11T09:16:36.569Z,1.02
2023-02-11T09:21:38.218Z,1.28
2023-02-11T09:26:42.152Z,1.55
2023-02-11T09:31:43.909Z,1.89
2023-02-11T09:36:45.884Z,2.29
2023-02-11T09:42:15.407Z,2.69
2023-02-11T09:47:27.425Z,3.04
2023-02-11T09:52:58.131Z,3.44
2023-02-11T09:58:03.409Z,3.94
2023-02-11T10:03:26.345Z,4.62
2023-02-11T10:08:46.764Z,5.52
2023-02-11T10:14:01.346Z,6.09
2023-02-11T10:19:34.240Z,6.52
2023-02-11T10:24:37.440Z,6.66
2023-02-11T10:29:44.258Z,6.70
2023-02-11T10:34:45.975Z,6.46
2023-02-11T10:39:47.581Z,6.32
2023-02-11T10:45:02.526Z,6.15
2023-02-11T10:50:29.655Z,6.00
2023-02-11T10:55:31.287Z,5.76
2023-02-11T11:00:41.029Z,5.62
2023-02-11T11:06:01.032Z,5.68
2023-02-11T11:11:12.371Z,5.66
2023-02-11T11:16:13.924Z,5.75
2023-02-11T11:21:42.891Z,6.09
2023-02-11T11:26:44.436Z,6.38
2023-02-11T11:31:59.503Z,6.57
2023-02-11T11:37:11.731Z,6.65
2023-02-11T11:42:31.529Z,6.72
2023-02-11T11:47:48.805Z,6.79
2023-02-11T11:52:54.184Z,6.77
2023-02-11T11:57:55.760Z,6.78
2023-02-11T12:03:39.180Z,6.80
2023-02-11T12:09:07.930Z,6.89
2023-02-11T12:14:47.072Z,6.97
2023-02-11T12:20:27.474Z,7.02
2023-02-11T12:25:54.290Z,7.02
2023-02-11T12:31:13.187Z,7.04
2023-02-11T12:36:46.573Z,7.08
2023-02-11T12:42:18.108Z,7.06
2023-02-11T12:47:35.526Z,7.10
2023-02-11T12:53:04.767Z,7.13
2023-02-11T12:58:16.273Z,7.15
2023-02-11T13:03:31.999Z,7.21
2023-02-11T13:08:53.783Z,7.27
2023-02-11T13:14:12.757Z,7.29
2023-02-11T13:19:22.359Z,7.33
2023-02-11T13:24:39.691Z,7.31
2023-02-11T13:29:59.427Z,7.32
2023-02-11T13:35:01.887Z,7.39
2023-02-11T13:40:19.849Z,7.43
2023-02-11T13:45:33.605Z,7.46
2023-02-11T13:50:39.803Z,7.47
2023-02-11T13:55:45.992Z,7.49
2023-02-11T14:00:51.747Z,7.51
2023-02-11T14:06:46.115Z,7.51
2023-02-11T14:11:57.233Z,7.51
2023-02-11T14:16:58.959Z,7.51
2023-02-11T14:22:16.633Z,7.51
2023-02-11T14:27:25.864Z,7.55
2023-02-11T14:32:53.634Z,7.57
2023-02-11T14:38:07.512Z,7.59
2023-02-11T14:43:23.275Z,7.57
2023-02-11T14:48:31.781Z,7.63
2023-02-11T14:53:34.852Z,7.88
2023-02-11T14:58:36.445Z,8.13
2023-02-11T15:03:43.407Z,8.33
2023-02-11T15:08:55.059Z,8.44
2023-02-11T15:13:59.311Z,8.58
2023-02-11T15:19:06.410Z,8.65
2023-02-11T15:24:29.951Z,8.62
2023-02-11T15:29:40.977Z,8.51
2023-02-11T15:34:44.247Z,8.47
2023-02-11T15:39:45.888Z,8.31
2023-02-11T15:44:54.391Z,8.11
2023-02-11T15:49:58.184Z,7.98
2023-02-11T15:55:02.833Z,7.87
2023-02-11T16:00:07.213Z,7.78
2023-02-11T16:05:32.735Z,7.74
2023-02-11T16:10:36.120Z,7.75
2023-02-11T16:15:45.364Z,7.81
2023-02-11T16:20:48.796Z,7.82
2023-02-11T16:26:16.687Z,7.82
2023-02-11T16:31:18.848Z,7.76
2023-02-11T16:36:20.543Z,7.67
2023-02-11T16:41:22.169Z,7.65
2023-02-11T16:46:23.864Z,7.53
2023-02-11T16:51:25.737Z,7.35
2023-02-11T16:56:27.343Z,7.24
2023-02-11T17:01:29.189Z,7.19
2023-02-11T17:06:31.057Z,7.16
2023-02-11T17:11:32.602Z,7.11
2023-02-11T17:16:34.269Z,7.06
2023-02-11T17:21:35.904Z,6.99
2023-02-11T17:26:38.474Z,6.75
2023-02-11T17:31:40.777Z,6.69
2023-02-11T17:36:42.416Z,6.66
2023-02-11T17:41:43.968Z,6.62
2023-02-11T17:46:45.566Z,6.61
2023-02-11T17:51:47.161Z,6.58
2023-02-11T17:56:50.793Z,6.46
2023-02-11T18:01:52.559Z,6.34
2023-02-11T18:06:54.153Z,6.34
2023-02-11T18:11:55.783Z,6.30
2023-02-11T18:16:57.441Z,6.28
2023-02-11T18:22:00.978Z,6.25
2023-02-11T18:27:02.865Z,6.13
2023-02-11T18:32:04.624Z,5.95
2023-02-11T18:37:06.621Z,5.89
2023-02-11T18:42:09.183Z,5.93
2023-02-11T18:47:10.740Z,5.87
2023-02-11T18:52:12.313Z,5.79
2023-02-11T18:57:13.866Z,5.75
2023-02-11T19:02:15.449Z,5.62
2023-02-11T19:07:17.332Z,5.63
2023-02-11T19:12:18.892Z,5.61
2023-02-11T19:17:20.454Z,5.60
2023-02-11T19:22:22.047Z,5.58
2023-02-11T19:27:23.663Z,5.57
2023-02-11T19:32:25.264Z,5.61
2023-02-11T19:37:26.950Z,5.66
2023-02-11T19:42:28.593Z,5.70
2023-02-11T19:47:31.294Z,5.71
2023-02-11T19:52:32.971Z,5.74
2023-02-11T19:57:34.531Z,5.60
2023-02-11T20:02:37.965Z,5.46
2023-02-11T20:07:39.555Z,5.27
2023-02-11T20:12:41.117Z,5.09
2023-02-11T20:17:42.768Z,5.11
2023-02-11T20:22:44.649Z,4.95
2023-02-11T20:27:46.209Z,4.84
2023-02-11T20:32:47.778Z,4.86
2023-02-11T20:37:49.443Z,4.96
2023-02-11T20:42:51.460Z,5.05
2023-02-11T20:47:54.545Z,5.06
2023-02-11T20:52:56.107Z,5.02
2023-02-11T20:57:57.736Z,4.94
2023-02-11T21:02:59.366Z,4.93
2023-02-11T21:08:01.008Z,4.89
2023-02-11T21:13:03.016Z,4.82
2023-02-11T21:18:04.759Z,4.72
2023-02-11T21:23:06.318Z,4.80
2023-02-11T21:28:08.034Z,4.94
2023-02-11T21:33:09.768Z,5.07
2023-02-11T21:38:11.608Z,5.13
2023-02-11T21:43:13.242Z,5.12
2023-02-11T21:48:16.171Z,5.08
2023-02-11T21:53:17.766Z,5.08
2023-02-11T21:58:19.395Z,5.07
2023-02-11T22:03:21.036Z,5.02
2023-02-11T22:08:22.668Z,4.80
2023-02-11T22:13:24.309Z,4.72
2023-02-11T22:18:26.377Z,4.77
2023-02-11T22:23:28.802Z,4.67
2023-02-11T22:28:30.494Z,4.71
2023-02-11T22:33:32.155Z,4.75
2023-02-11T22:38:34.400Z,4.82
2023-02-11T22:43:37.183Z,4.79
2023-02-11T22:48:38.810Z,4.73
2023-02-11T22:53:40.482Z,4.67
2023-02-11T22:58:42.119Z,4.77
2023-02-11T23:03:44.630Z,4.89
2023-02-11T23:08:49.372Z,4.80
2023-02-11T23:13:52.876Z,4.77
2023-02-11T23:18:55.200Z,4.71
2023-02-11T23:24:15.834Z,4.82
2023-02-11T23:29:17.515Z,4.82
2023-02-11T23:34:23.953Z,4.88
2023-02-11T23:39:25.613Z,4.85
2023-02-11T23:44:27.929Z,4.80
2023-02-11T23:49:29.678Z,4.78
2023-02-11T23:54:31.252Z,4.85
2023-02-11T23:59:35.320Z,4.86
